SEW EURODRIVE INVERTERS - DRIVES

Please send your inquiry toinfo@alandcontrols.com

 

SEW Eurodrive frequency inverter MOVITRAC B general industrial series
MOVITRAC MS07V frequency inverters series have universal characteristics that allow to use them as part of any power AC drives. These are fans, pumps, high pressure injectors, screw type feeders, hoists, conveyors, motors, drives and other transporters.
1 phase 200-240 V, capacity from 0.25 kW to 2.2 kW
3 phase 200-240 V, capacity from 0.25 kW to 30 kW
3 phase 380-500 V, capacity from 0.25 kW to 75 kW
Model Voltage, V Capacity, kW Current, A
MC07B0003-2B1-4-00 230 (1ph) 0,25 1.7
MC07B0004-2B1-4-00 230 (1ph) 0,37 2.5
MC07B0005-2B1-4-00 230 (1ph) 0,55 3.3
MC07B0008-2B1-4-00 230 (1ph) 0,75 4.2
MC07B0011-2B1-4-00 230 (1ph) 1,1 5.7
MC07B0015-2B1-4-00 230 (1ph) 1,5 7.3
MC07B0022-2B1-4-00 230 (1ph) 2,2 8.6
MC07B0003-2A3-4-00 230 (3ph) 0,25 1.7
MC07B0004-2A3-4-00 230 (3ph) 0,37 2.5
MC07B0005-2A3-4-00/S0 230 (3ph) 0,55 3.3
MC07B0008-2A3-4-00/S0 230 (3ph) 0,75 4.2
MC07B0011-2A3-4-00/S0 230 (3ph) 1,1 5.7
MC07B0015-2A3-4-00/S0 230 (3ph) 1,5 7.3
MC07B0022-2A3-4-00/S0 230 (3ph) 2,2 8.6
MC07B0037-2A3-4-00 230 (3ph) 3,7 14.5
MC07B0055-2A3-4-00 230 (3ph) 5,5 22
MC07B0075-2A3-4-00 230 (3ph) 7,5 29
MC07B0110-203-4-00 230 (3ph) 11 42
MC07B0150-203-4-00 230 (3ph) 15 54
MC07B0220-203-4-00 230 (3ph) 22 80
MC07B0300-203-4-00 230 (3ph) 30 95
MC07B0003-5A3-4-00 400 (3ph) 0,25 1
MC07B0004-5A3-4-00 400 (3ph) 0,37 1.6
MC07B0005-5A3-4-00/S0 400 (3ph) 0,55 2
MC07B0008-5A3-4-00/S0 400 (3ph) 0,75 2.4
MC07B0011-5A3-4-00/S0 400 (3ph) 1,1 3.1
MC07B0015-5A3-4-00/S0 400 (3ph) 1,5 4
MC07B0022-5A3-4-00/S0 400 (3ph) 2,2 5.5
MC07B0030-5A3-4-00/S0 400 (3ph) 3 7
MC07B0040-5A3-4-00/S0 400 (3ph) 4 9.5
MC07B0055-5A3-4-00 400 (3ph) 5,5 12.5
MC07B0075-5A3-4-00 400 (3ph) 7,5 16
MC07B0110-5A3-4-00 400 (3ph) 11 24
MC07B0150-5A3-4-00 400 (3ph) 15 32
MC07B0220-5A3-4-00 400 (3ph) 22 46
MC07B0300-5A3-4-00 400 (3ph) 30 60
MC07B0370-5A3-4-00 400 (3ph) 37 73
MC07B0450-5A3-4-00 400 (3ph) 45 89
MC07B0550-5A3-4-00 400 (3ph) 55 105
MC07B0750-5A3-4-00 400 (3ph) 75 130
SEW-Eurodrive frequency inverter MOVITRAC LTE-B compact series
The new MOVITRAC LTE-B frequency inverters provide the best conditions for simple applications. Designed and developed for speed control in asynchronous motors, it is particularly economical when used in conveyor applications, e.g. for small, modular conveyor lines, fans and pumps.
1 phase 115 V, capacity from 0.37 kW to 1.1 kW
1 phase 230 V, capacity from 0.37 kW to 4 kW
3 phase 230 V, capacity from 0.37 kW to 4 kW
3 phase 400 V, capacity from 0.75 kW to 11 kW
Model Voltage, V Capacity, kW Current, A
MC LTE-B0004-101-1-00 115 (1ph) 0,37 2.3
MC LTE-B0008-101-1-00 115 (1ph) 0,75 4.3
MC LTE-B0011-101-4-00 115 (1ph) 1,1 5.8
MC LTE-B0004-2B1-1-00 230 (1ph) 0,37 2.3
MC LTE-B0008-2B1-1-00 230 (1ph) 0,75 4.3
MC LTE-B0015-2B1-1-00 230 (1ph) 1,5 7
MC LTE-B0015-2B1-4-00 230 (1ph) 1,5 7
MC LTE-B0022-2B1-4-00 230 (1ph) 2,2 10.5
MC LTE-B0040-2B1-4-00 230 (1ph) 4 15
MC LTE-B0004-203-1-00 230 (3ph) 0,37 2.3
MC LTE-B0008-203-1-00 230 (3ph) 0,75 4.3
MC LTE-B0015-203-1-00 230 (3ph) 1,5 7
MC LTE-B0015-2A3-4-00 230 (3ph) 1,5 7
MC LTE-B0022-2A3-4-00 230 (3ph) 2,2 10.5
MC LTE-B0040-2A3-4-00 230 (3ph) 4 18
MC LTE-B0008-5A3-1-00 400 (3ph) 0,75 2.2
MC LTE-B0015-5A3-1-00 400 (3ph) 1,5 4.1
MC LTE-B0015-5A3-4-00 400 (3ph) 1,5 4.1
MC LTE-B0022-5A3-4-00 400 (3ph) 2,2 5.8
MC LTE-B0040-5A3-4-00 400 (3ph) 4 9.5
MC LTE-B0055-5A3-4-00 400 (3ph) 5,5 14
MC LTE-B0075-5A3-4-00 400 (3ph) 7,5 18
MC LTE-B0110-5A3-4-00 400 (3ph) 11 24
SEW-Eurodrive frequency inverter MOVITRAC LTP-B conveyor series

The frequency inverter series MOVITRAC LTP-B has been designed to optimally match the application requirements outside the control cabinet. They have been designed and developed for conveyor applications, hoists, fans and pumps.

1 phase 230 V, capacity from 0.75 kW to 2.2 kW

3 phase 230 V, capacity from 0.75 kW to 90 kW

3 phase 400 V, capacity from 0.75 kW to 160 kW

3 phase 575 V, capacity from 0.75 kW to 110 kW

Model Voltage, V Capacity, kW Current, A
MC LTP-B-0008-2B1-4-00 230 (1ph) 0,75 4.3
MC LTP-B-0008-2B1-4-10 230 (1ph) 0,75 4.3
MC LTP-B-0015-2B1-4-00 230 (1ph) 1,5 7
MC LTP-B-0015-2B1-4-10 230 (1ph) 1,5 7
MC LTP-B-0022-2B1-4-00 230 (1ph) 2,2 10.5
MC LTP-B-0022-2B1-4-10 230 (1ph) 2,2 10.5
MC LTP-B-0008-2A3-4-00 230 (3ph) 0,75 4.3
MC LTP-B-0008-2A3-4-10 230 (3ph) 0,75 4.3
MC LTP-B-0015-2A3-4-00 230 (3ph) 1,5 7
MC LTP-B-0015-2A3-4-10 230 (3ph) 1,5 7
MC LTP-B-0022-2A3-4-00 230 (3ph) 2,2 10.5
MC LTP-B-0022-2A3-4-10 230 (3ph) 2,2 10.5
MC LTP-B-0030-2A3-4-00 230 (3ph) 3 14
MC LTP-B-0030-2A3-4-10 230 (3ph) 3 14
MC LTP-B-0040-2A3-4-00 230 (3ph) 4 18
MC LTP-B-0040-2A3-4-10 230 (3ph) 4 18
MC LTP-B-0055-2A3-4-00 230 (3ph) 5,5 24
MC LTP-B-0055-2A3-4-10 230 (3ph) 5,5 24
MC LTP-B-0075-2A3-4-10 230 (3ph) 7,5 30
MC LTP-B-0110-2A3-4-10 230 (3ph) 11 46
MC LTP-B-0150-2A3-4-10 230 (3ph) 15 61
MC LTP-B-0185-2A3-4-10 230 (3ph) 18,5 72
MC LTP-B-0220-2A3-4-10 230 (3ph) 22 90
MC LTP-B-0300-2A3-4-10 230 (3ph) 30 110
MC LTP-B-0370-2A3-4-10 230 (3ph) 37 150
MC LTP-B-0450-2A3-4-10 230 (3ph) 45 180
MC LTP-B-0550-2A3-4-10 230 (3ph) 55 202
MC LTP-B-0220-2A3-4-10 230 (3ph) 75 248
MC LTP-B-0008-5A3-4-00 400 (3ph) 0,75 2.2
MC LTP-B-0008-5A3-4-10 400 (3ph) 0,75 2.2
MC LTP-B-0015-5A3-4-00 400 (3ph) 1,5 4.1
MC LTP-B-0015-5A3-4-10 400 (3ph) 1,5 4.1
MC LTP-B-0022-5A3-4-00 400 (3ph) 2,2 5.8
MC LTP-B-0022-5A3-4-10 400 (3ph) 2,2 5.8
MC LTP-B-0040-5A3-4-00 400 (3ph) 4 9.5
MC LTP-B-0040-5A3-4-10 400 (3ph) 4 9.5
MC LTP-B-0055-5A3-4-00 400 (3ph) 5,5 14
MC LTP-B-0055-5A3-4-10 400 (3ph) 5,5 14
MC LTP-B-0075-5A3-4-00 400 (3ph) 7,5 18
MC LTP-B-0075-5A3-4-10 400 (3ph) 7,5 18
MC LTP-B-0110-5A3-4-00 400 (3ph) 11 24
MC LTP-B-0110-5A3-4-10 400 (3ph) 11 24
MC LTP-B-0150-5A3-4-10 400 (3ph) 15 30
MC LTP-B-0185-5A3-4-10 400 (3ph) 18,5 39
MC LTP-B-0220-5A3-4-10 400 (3ph) 22 46
MC LTP-B-0300-5A3-4-10 400 (ph) 30 61
MC LTP-B-0370-5A3-4-10 400 (3ph) 37 72
MC LTP-B-0450-5A3-4-10 400 (3ph) 45 90
MC LTP-B-0550-5A3-4-10 400 (3ph) 55 110
MC LTP-B-0750-5A3-4-10 400 (3ph) 75 150
MC LTP-B-0900-5A3-4-10 400 (3ph) 90 180
MC LTP-B-1100-5A3-4-10 400 (3ph) 110 202
MC LTP-B-1320-5A3-4-10 400 (3ph) 132 240
MC LTP-B-1600-5A3-4-10 400 (3ph) 160 302
MC LTP-B-0008-603-4-00 575 (3ph) 0,75 2.1
MC LTP-B-0008-603-4-10 575 (3ph) 0,75 2.1
MC LTP-B-0015-603-4-00 575 (3ph) 1,5 3.1
MC LTP-B-0015-603-4-10 575 (3ph) 1,5 3.1
MC LTP-B-0022-603-4-00 575 (3ph) 2,2 4.1
MC LTP-B-0022-603-4-10 575 (3ph) 2,2 4.1
MC LTP-B-0040-603-4-00 575 (3ph) 4 6.5
MC LTP-B-0040-603-4-10 575 (3ph) 4 6.5
MC LTP-B-0055-603-4-00 575 (3ph) 5,5 9
MC LTP-B-0055-603-4-10 575 (3ph) 5,5 9
MC LTP-B-0075-603-4-00 575 (3ph) 7,5 12
MC LTP-B-0075-603-4-10 575 (3ph) 7,5 12
MC LTP-B-0110-603-4-00 575 (3ph) 11 17
MC LTP-B-0110-603-4-10 575 (3ph) 11 17
MC LTP-B-0150-603-4-00 575 (3ph) 15 22
MC LTP-B-0150-603-4-10 575 (3ph) 15 22
MC LTP-B-0185-603-4-10 575 (3ph) 18,5 28
MC LTP-B-0220-603-4-10 575 (3ph) 22 34
MC LTP-B-0300-603-4-10 575 (3ph) 30 43
MC LTP-B-0370-603-4-10 575 (3ph) 37 54
MC LTP-B-0450-603-4-10 575 (3ph) 45 65
MC LTP-B-0550-603-4-10 575 (3ph) 55 78
MC LTP-B-0750-603-4-10 575 (3ph) 75 105
MC LTP-B-0900-603-4-10 575 (3ph) 90 130
MC LTP-B-1100-603-4-10 575 (3ph) 110 150
SEW-Eurodrive frequency inverters MOVIDRIVE B compact series
Whether asynchronous AC drives or synchronous servo drives - the MOVIDRIVE® B drive inverters can control it. The broad power range from 0.55 kW to 315 kW, the fantastic overload capacity and the modular concept of the MOVIDRIVE® B inverter help to improve the flexibility and efficiency of your applications.
3 phase 200-240 V, capacity from 1,5 kW to 30 kW
3 phase 380-500 V, capacity from 0,55 kW to 250 kW
Model Voltage, V Capacity, kW Current, A
MDX61B 0015-2A3-4-0_ 200-240 (3ph) 1,5 7.3
MDX61B 0022-2A3-4-0_ 200-240 (3ph) 2,2 8.6
MDX61B 0055-2A3-4-0_ 200-240 (3ph) 3,7 14.5
MDX61B 0075-2A3-4-0_ 200-240 (3ph) 5,5 22
MDX61B 0015-2A3-4-0_ 200-240 (3ph) 7,5 29
MDX61B 0110-203-4-0_ 200-240 (3ph) 11 42
MDX61B 0150-203-4-0_ 200-240 (3ph) 15 54
MDX61B 0220-203-4-0_ 200-240 (3ph) 22 80
MDX61B 0300-203-4-0_ 200-240 (3ph) 30 95
MDX60/61B 0005-5A3-4-0_ 380-500 (3ph) 0,55 2
MDX60/61B 0008-5A3-4-0_ 380-500 (3ph) 0,75 2.4
MDX60/61B 0011-5A3-4-0_ 380-500 (3ph) 1,1 3.1
MDX60/61B 0014-5A3-4-0_ 380-500 (3ph) 1,5 4
MDX61B 0015-5A3-4-0_ 380-500 (3ph) 1,5 4
MDX61B 0022-5A3-4-0_ 380-500 (3ph) 2,2 5.5
MDX61B 0030-5A3-4-0_ 380-500 (3ph) 3 7
MDX61B 0040-5A3-4-0_ 380-500 (3ph) 4 9.5
MDX61B 0055-5A3-4-0_ 380-500 (3ph) 5,5 12.5
MDX61B 0075-5A3-4-0_ 380-500 (3ph) 7,5 16
MDX61B 0110-5A3-4-0_ 380-500 (3ph) 11 24
MDX61B 0150-503-4-0_ 380-500 (3ph) 15 32
MDX61B 0220-503-4-0_ 380-500 (3ph) 22 46
MDX61B 0300-503-4-0_ 380-500 (3ph) 30 60
MDX61B 0370-503-4-0_ 380-500 (3ph) 37 73
MDX61B 0450-503-4-0_ 388-500 (3ph) 45 89
MDX61B 0550-503-4-0_ 380-500 (3ph) 55 105
MDX61B 0750-503-4-0_ 380-500 (3ph) 75 130
MDX61B 0900-503-4-0_ 380-500 (3ph) 90 170
MDX61B 1100-503-4-0_ 380-500 (3ph) 110 200
MDX61B 1320-503-4-0_ 380-500 (3ph) 132 250
MDX61B 1600-503-4-0_ 380-500 (3ph) 160 300
MDX61B 2000-503-4-0_ 380-500 (3ph) 200 380
MDX61B 2500-503-4-0_ 380-500 (3ph) 250 475
SEW-Eurodrive frequency inverter MOVI4R-U basic series
MOVI4R-U® frequency inverters provide the precise functionality that you need to reliably control the speed of asynchronous motors. Not less - but with considerable added value.
1 phase 200-240 V, capacity from 0,25 kW to 0,55 kW
3 phase 200-240 V, capacity from 0,25 kW to 1,5 kW
3 phase 380-500 V, capacity from 0,25 kW to 4 kW
Model Voltage, V Capacity, kW Current, A
MUWA025-231-S00-00 200-240 (1ph) 0,25 1.2
MUWA037-231-S00-00 200-240 (1ph) 0,37 2
MUWA055-231-S00-00/PF 200-240 (1ph) 0,55 2.7
MUWA025-233-S00-00 200-240 (3ph) 0,25 1.2
MUWA037-233-S00-00 200-240 (3ph) 0,37 2
MUWA055-233-S00-00 200-240 (3ph) 0,55 2.7
MUWA075-233-S00-00/PF 200-240 (3ph) 0,75 3.1
MUWA110-233-S00-00/PF 200-240 (3ph) 1,1 4.5
MUWA150-233-S00-00/PF 200-240 (3ph) 1,5 5.9
MUWA025-503-S00-00 380-500 (3ph) 0,25 0.7
MUWA037-503-S00-00 380-500 (3ph) 0,37 1.1
MUWA055-503-S00-00 380-500 (3ph) 0,55 1.6
MUWA075-503-S00-00/PF 380-500 (3ph) 0,75 1.7
MUWA110-503-S00-00/PF 380-500 (3ph) 1,1 2.5
MUWA150-503-S00-00/PF 380-500 (3ph) 1,5 3.4
MUWA220-503-S00-00/PF 380-500 (3ph) 2,2 4.8
MUWA300-503-S00-00/PF 380-500 (3ph) 3 6.4
MUWA400-503-S00-00/PF 380-500 (3ph) 4 8.1
SEW-Eurodrive frequency inverter MOVIFIT basic compact series
MOVIFIT® compact, the decentralized basic inverter for efficient materials handling technology. Less is more: we have reduced the MOVIFIT® compact to include only the functions and features necessary, and its design means that it is the ideal inverter for the lower function range.
3 phase 380-500 V, capacity from 0,75 kW to 1,5 kW
Model Voltage, V Capacity, kW Current, A
MBF07B-503-XX-XX-X-XX 380-500 (3ph) 0,75 1.7
MBF11B-503-XX-XX-X-XX 380-500 (3ph) 1,1 2.5
MBF15B-503-XX-XX-X-XX 380-500 (3ph) 1,5 3.4
   
   
SEW-Eurodrive frequency inverter MOVIPRO SDC compact series
The compact drive and positioning inverter saves on space and reduces the complexity of your systems. Thanks to decentralized technology, it has a high level of integration and can replace entire control cabinets in the field.
3 phase 380-500 V, capacity from 2,2 kW to 22 kW
Model Voltage, V Capacity, kW Current, A
PFA-MD022B 380-500 (3ph) 2,2 5.5
PFA-MD040B 380-500 (3ph) 4 9.5
PFA-MD075B 380-500 (3ph) 7,5 16
PFA-MD110B 380-500 (3ph) 11 24
PFA-MD150B 380-500 (3ph) 15 32
SEW-Eurodrive frequency inverter MOVIPRO SDC compact series
The compact drive and positioning inverter saves on space and reduces the complexity of your systems. Thanks to decentralized technology, it has a high level of integration and can replace entire control cabinets in the field.
3 phase 380-500 V, capacity from 2,2 kW to 22 kW
Model Voltage, V Capacity, kW Current, A
PFA-MD022B 380-500 (3ph) 2,2 5.5
PFA-MD040B 380-500 (3ph) 4 9.5
PFA-MD075B 380-500 (3ph) 7,5 16
PFA-MD110B 380-500 (3ph) 11 24
PFA-MD150B 380-500 (3ph) 15 32
SEW-Eurodrive frequency inverter MOVIPRO ADC application series
With its freely programmable drive and application inverter, MOVIPRO® ADC brings your production system architecture up to date – regardless of whether you use stationary or mobile materials handling technology.
3 phase 380-500 V, capacity from 2,2 kW to 15 kW
Model Voltage, V Capacity, kW Current, A
PHC21A-A022M1 380-500 (3ph) 2,2 5.5
PHC21A-A040M1 380-500 (3ph) 4 9.5
PHC21A-A075M1 380-500 (3ph) 7,5 16
PHC21A-A110M1 380-500 (3ph) 11 24
PHC21A-A150M1 380-500 (3ph) 15 32